VOZ512 YMML-YSSY
Flight info
| Callsign | VOZ512 |
|---|---|
| Flight time | 1h 5m |
| Altitude | 35000 |
| Route | DOSEL2/34 DOSEL Y59 RIVET |
| Aircraft | B738/M-SDE2E3FGHIRWXY/LB1 |
Departure
| Time | 2026-05-04 08:14 |
|---|---|
| Airport | Melbourne Airport (YMML) |
Arrival
| Time | 2026-05-04 09:19 |
|---|---|
| Airport | Sydney Kingsford Smith International Airport (YSSY) |
| Time | Latitude | Longitude | Altitude | Speed | Heading |
|---|---|---|---|---|---|
| 2026-05-04 07:45 | -37.66954 | 144.84425 | 389 ft | 0 kts | 330° |
| 2026-05-04 07:57 | -37.66955 | 144.84426 | 389 ft | 0 kts | 330° |
| 2026-05-04 07:57 | -37.66970 | 144.84437 | 389 ft | 3 kts | 330° |
| 2026-05-04 07:58 | -37.66976 | 144.84441 | 389 ft | 0 kts | 330° |
| 2026-05-04 08:00 | -37.66987 | 144.84449 | 388 ft | 2 kts | 330° |
| 2026-05-04 08:00 | -37.67002 | 144.84460 | 388 ft | 2 kts | 330° |
| 2026-05-04 08:02 | -37.67024 | 144.84484 | 388 ft | 3 kts | 256° |
| 2026-05-04 08:02 | -37.67044 | 144.84414 | 387 ft | 11 kts | 257° |
| 2026-05-04 08:02 | -37.67059 | 144.84315 | 385 ft | 12 kts | 261° |
| 2026-05-04 08:03 | -37.67116 | 144.84254 | 383 ft | 12 kts | 185° |
| 2026-05-04 08:03 | -37.67204 | 144.84270 | 381 ft | 13 kts | 171° |
| 2026-05-04 08:03 | -37.67295 | 144.84287 | 379 ft | 14 kts | 172° |
| 2026-05-04 08:03 | -37.67355 | 144.84298 | 378 ft | 4 kts | 172° |
| 2026-05-04 08:04 | -37.67356 | 144.84298 | 378 ft | 0 kts | 172° |
| 2026-05-04 08:04 | -37.67358 | 144.84299 | 378 ft | 1 kts | 172° |
| 2026-05-04 08:04 | -37.67364 | 144.84300 | 378 ft | 0 kts | 172° |
| 2026-05-04 08:05 | -37.67366 | 144.84300 | 378 ft | 1 kts | 172° |
| 2026-05-04 08:06 | -37.67367 | 144.84300 | 378 ft | 0 kts | 172° |
| 2026-05-04 08:06 | -37.67397 | 144.84306 | 377 ft | 15 kts | 172° |
| 2026-05-04 08:06 | -37.67530 | 144.84330 | 374 ft | 20 kts | 172° |
| 2026-05-04 08:08 | -37.67865 | 144.84184 | 358 ft | 2 kts | 261° |
| 2026-05-04 08:08 | -37.67869 | 144.84152 | 360 ft | 5 kts | 261° |
| 2026-05-04 08:10 | -37.67865 | 144.83967 | 355 ft | 0 kts | 350° |
| 2026-05-04 08:13 | -37.67729 | 144.83939 | 363 ft | 49 kts | 351° |
| 2026-05-04 08:13 | -37.67185 | 144.83837 | 380 ft | 103 kts | 352° |
| 2026-05-04 08:13 | -37.66312 | 144.83677 | 415 ft | 151 kts | 352° |
| 2026-05-04 08:13 | -37.65190 | 144.83457 | 844 ft | 172 kts | 352° |
| 2026-05-04 08:14 | -37.63995 | 144.83218 | 1735 ft | 174 kts | 352° |
| 2026-05-04 08:14 | -37.62756 | 144.82986 | 2429 ft | 186 kts | 350° |
| 2026-05-04 08:14 | -37.61386 | 144.82748 | 2724 ft | 211 kts | 347° |
| 2026-05-04 08:16 | -37.50875 | 144.87321 | 7944 ft | 264 kts | 18° |
| 2026-05-04 08:16 | -37.49184 | 144.88292 | 8732 ft | 270 kts | 19° |
| 2026-05-04 08:16 | -37.47477 | 144.89323 | 9480 ft | 274 kts | 20° |
| 2026-05-04 08:17 | -37.45750 | 144.90387 | 10196 ft | 279 kts | 20° |
| 2026-05-04 08:17 | -37.44021 | 144.91710 | 10564 ft | 303 kts | 32° |
| 2026-05-04 08:17 | -37.42489 | 144.93676 | 10968 ft | 328 kts | 47° |
| 2026-05-04 08:17 | -37.41162 | 144.96108 | 11312 ft | 345 kts | 50° |
| 2026-05-04 08:19 | -37.30813 | 145.14410 | 14729 ft | 373 kts | 48° |
| 2026-05-04 08:19 | -37.29297 | 145.17074 | 15503 ft | 377 kts | 48° |
| 2026-05-04 08:20 | -37.27764 | 145.19767 | 16278 ft | 381 kts | 48° |
| 2026-05-04 08:20 | -37.26215 | 145.22494 | 17020 ft | 385 kts | 47° |
| 2026-05-04 08:20 | -37.24654 | 145.25241 | 17735 ft | 388 kts | 47° |
| 2026-05-04 08:20 | -37.23077 | 145.28013 | 18433 ft | 392 kts | 47° |
| 2026-05-04 08:21 | -37.21484 | 145.30809 | 19088 ft | 396 kts | 47° |
| 2026-05-04 08:21 | -37.19876 | 145.33628 | 19748 ft | 399 kts | 47° |
| 2026-05-04 08:21 | -37.18253 | 145.36471 | 20356 ft | 403 kts | 47° |
| 2026-05-04 08:21 | -37.16637 | 145.39300 | 20965 ft | 406 kts | 46° |
| 2026-05-04 08:22 | -37.14988 | 145.42186 | 21586 ft | 408 kts | 46° |
| 2026-05-04 08:22 | -37.13325 | 145.45089 | 22156 ft | 411 kts | 46° |
| 2026-05-04 08:24 | -37.01336 | 145.65945 | 25694 ft | 430 kts | 46° |
| 2026-05-04 08:24 | -36.99578 | 145.68990 | 26115 ft | 433 kts | 46° |
| 2026-05-04 08:24 | -36.97810 | 145.72051 | 26529 ft | 435 kts | 45° |
| 2026-05-04 08:24 | -36.96032 | 145.75126 | 26940 ft | 437 kts | 45° |
| 2026-05-04 08:25 | -36.94250 | 145.78206 | 27314 ft | 439 kts | 46° |
| 2026-05-04 08:25 | -36.92452 | 145.81313 | 27669 ft | 441 kts | 46° |
| 2026-05-04 08:25 | -36.90646 | 145.84428 | 28011 ft | 444 kts | 46° |
| 2026-05-04 08:25 | -36.88831 | 145.87558 | 28327 ft | 446 kts | 45° |
| 2026-05-04 08:26 | -36.87006 | 145.90701 | 28656 ft | 448 kts | 45° |
| 2026-05-04 08:27 | -36.74028 | 146.12973 | 30919 ft | 454 kts | 45° |
| 2026-05-04 08:28 | -36.72165 | 146.16155 | 31254 ft | 454 kts | 45° |
| 2026-05-04 08:28 | -36.70300 | 146.19339 | 31579 ft | 455 kts | 45° |
| 2026-05-04 08:28 | -36.68435 | 146.22520 | 31906 ft | 455 kts | 45° |
| 2026-05-04 08:28 | -36.66568 | 146.25703 | 32218 ft | 455 kts | 45° |
| 2026-05-04 08:29 | -36.64725 | 146.28842 | 32543 ft | 455 kts | 45° |
| 2026-05-04 08:29 | -36.62857 | 146.32020 | 32852 ft | 455 kts | 45° |
| 2026-05-04 08:29 | -36.60983 | 146.35205 | 33159 ft | 455 kts | 45° |
| 2026-05-04 08:31 | -36.47869 | 146.57411 | 35067 ft | 456 kts | 45° |
| 2026-05-04 08:33 | -36.34687 | 146.79585 | 36797 ft | 456 kts | 44° |
| 2026-05-04 08:33 | -36.32800 | 146.82750 | 36987 ft | 457 kts | 44° |
| 2026-05-04 08:35 | -36.17861 | 147.07679 | 37001 ft | 450 kts | 44° |
| 2026-05-04 08:35 | -36.14124 | 147.13900 | 36992 ft | 450 kts | 44° |
| 2026-05-04 08:37 | -36.00941 | 147.35707 | 37013 ft | 455 kts | 45° |
| 2026-05-04 08:38 | -35.97144 | 147.41964 | 37026 ft | 456 kts | 45° |
| 2026-05-04 08:38 | -35.93335 | 147.48233 | 37020 ft | 455 kts | 45° |
| 2026-05-04 08:40 | -35.78136 | 147.73122 | 37042 ft | 453 kts | 45° |
| 2026-05-04 08:41 | -35.74336 | 147.79312 | 37050 ft | 453 kts | 45° |
| 2026-05-04 08:41 | -35.70539 | 147.85490 | 37046 ft | 452 kts | 45° |
| 2026-05-04 08:42 | -35.66733 | 147.91673 | 37053 ft | 453 kts | 45° |
| 2026-05-04 08:42 | -35.62943 | 147.97816 | 37057 ft | 454 kts | 45° |
| 2026-05-04 08:43 | -35.59122 | 148.04005 | 37054 ft | 453 kts | 45° |
| 2026-05-04 08:43 | -35.55302 | 148.10175 | 37075 ft | 453 kts | 44° |
| 2026-05-04 08:44 | -35.51474 | 148.16346 | 37074 ft | 455 kts | 45° |
| 2026-05-04 08:46 | -35.36092 | 148.41045 | 37102 ft | 458 kts | 44° |
| 2026-05-04 08:46 | -35.32228 | 148.47226 | 37101 ft | 455 kts | 44° |
| 2026-05-04 08:47 | -35.28375 | 148.53370 | 37078 ft | 455 kts | 44° |
| 2026-05-04 08:47 | -35.24520 | 148.59508 | 37106 ft | 455 kts | 44° |
| 2026-05-04 08:48 | -35.20660 | 148.65647 | 37087 ft | 456 kts | 44° |
| 2026-05-04 08:48 | -35.16795 | 148.71781 | 37090 ft | 455 kts | 44° |
| 2026-05-04 08:49 | -35.12920 | 148.77919 | 37099 ft | 457 kts | 44° |
| 2026-05-04 08:50 | -34.99278 | 148.99449 | 37101 ft | 458 kts | 44° |
| 2026-05-04 08:51 | -34.95373 | 149.05588 | 37088 ft | 458 kts | 44° |
| 2026-05-04 08:51 | -34.91457 | 149.11735 | 37091 ft | 458 kts | 44° |
| 2026-05-04 08:52 | -34.87541 | 149.17868 | 37087 ft | 458 kts | 44° |
| 2026-05-04 08:52 | -34.83626 | 149.23993 | 37100 ft | 458 kts | 44° |
| 2026-05-04 08:54 | -34.69271 | 149.49928 | 36220 ft | 482 kts | 54° |
| 2026-05-04 08:55 | -34.67662 | 149.53557 | 35297 ft | 490 kts | 54° |
| 2026-05-04 08:55 | -34.66047 | 149.57207 | 34389 ft | 490 kts | 55° |
| 2026-05-04 08:55 | -34.64968 | 149.59672 | 33798 ft | 487 kts | 55° |
| 2026-05-04 08:55 | -34.62888 | 149.64464 | 32586 ft | 482 kts | 56° |
| 2026-05-04 08:57 | -34.52656 | 149.87766 | 27099 ft | 446 kts | 55° |
| 2026-05-04 09:01 | -34.33768 | 150.30313 | 18849 ft | 379 kts | 56° |
| 2026-05-04 09:01 | -34.32520 | 150.33105 | 18283 ft | 375 kts | 56° |
| 2026-05-04 09:01 | -34.31284 | 150.35868 | 17683 ft | 372 kts | 56° |
| 2026-05-04 09:01 | -34.30061 | 150.38599 | 17108 ft | 367 kts | 56° |
| 2026-05-04 09:02 | -34.28849 | 150.41303 | 16523 ft | 364 kts | 56° |
| 2026-05-04 09:02 | -34.27653 | 150.43975 | 15946 ft | 359 kts | 56° |
| 2026-05-04 09:02 | -34.26472 | 150.46617 | 15373 ft | 355 kts | 56° |
| 2026-05-04 09:02 | -34.25305 | 150.49232 | 14799 ft | 351 kts | 56° |
| 2026-05-04 09:03 | -34.24149 | 150.51819 | 14229 ft | 348 kts | 56° |
| 2026-05-04 09:03 | -34.22999 | 150.54387 | 13649 ft | 347 kts | 56° |
| 2026-05-04 09:03 | -34.21847 | 150.56954 | 13077 ft | 347 kts | 56° |
| 2026-05-04 09:03 | -34.20708 | 150.59490 | 12499 ft | 349 kts | 56° |
| 2026-05-04 09:04 | -34.19531 | 150.62108 | 11905 ft | 351 kts | 56° |
| 2026-05-04 09:04 | -34.18386 | 150.64658 | 11303 ft | 350 kts | 56° |
| 2026-05-04 09:04 | -34.17229 | 150.67240 | 10698 ft | 349 kts | 56° |
| 2026-05-04 09:04 | -34.16082 | 150.69795 | 10263 ft | 339 kts | 57° |
| 2026-05-04 09:05 | -34.15002 | 150.72213 | 10195 ft | 317 kts | 57° |
| 2026-05-04 09:05 | -34.13970 | 150.74514 | 10080 ft | 299 kts | 56° |
| 2026-05-04 09:05 | -34.12995 | 150.76667 | 9962 ft | 293 kts | 56° |
| 2026-05-04 09:05 | -34.12012 | 150.78827 | 9599 ft | 293 kts | 56° |
| 2026-05-04 09:06 | -34.11042 | 150.80969 | 9278 ft | 288 kts | 56° |
| 2026-05-04 09:07 | -34.04556 | 150.95368 | 7373 ft | 273 kts | 57° |
| 2026-05-04 09:08 | -34.03653 | 150.97380 | 7113 ft | 272 kts | 58° |
| 2026-05-04 09:08 | -34.03111 | 150.99566 | 7028 ft | 277 kts | 85° |
| 2026-05-04 09:08 | -34.03549 | 151.01864 | 7042 ft | 291 kts | 117° |
| 2026-05-04 09:08 | -34.04830 | 151.03726 | 7046 ft | 289 kts | 137° |
| 2026-05-04 09:09 | -34.06300 | 151.05396 | 7023 ft | 291 kts | 134° |
| 2026-05-04 09:09 | -34.07753 | 151.07099 | 6986 ft | 290 kts | 142° |
| 2026-05-04 09:09 | -34.09518 | 151.08174 | 6932 ft | 280 kts | 166° |
| 2026-05-04 09:09 | -34.11414 | 151.08624 | 6682 ft | 276 kts | 172° |
| 2026-05-04 09:10 | -34.13270 | 151.09060 | 6407 ft | 275 kts | 170° |
| 2026-05-04 09:10 | -34.15130 | 151.09547 | 6119 ft | 273 kts | 169° |
| 2026-05-04 09:10 | -34.16979 | 151.10046 | 5830 ft | 272 kts | 169° |
| 2026-05-04 09:10 | -34.18829 | 151.10538 | 5534 ft | 271 kts | 169° |
| 2026-05-04 09:11 | -34.20669 | 151.11016 | 5259 ft | 270 kts | 169° |
| 2026-05-04 09:11 | -34.22499 | 151.11484 | 4990 ft | 268 kts | 169° |
| 2026-05-04 09:11 | -34.24301 | 151.12039 | 4702 ft | 268 kts | 158° |
| 2026-05-04 09:11 | -34.25770 | 151.13335 | 4611 ft | 257 kts | 127° |
| 2026-05-04 09:12 | -34.26512 | 151.15230 | 4399 ft | 248 kts | 96° |
| 2026-05-04 09:12 | -34.26552 | 151.17280 | 4151 ft | 243 kts | 81° |
| 2026-05-04 09:14 | -34.18180 | 151.23759 | 3032 ft | 202 kts | 348° |
| 2026-05-04 09:14 | -34.16818 | 151.23309 | 3036 ft | 206 kts | 348° |
| 2026-05-04 09:14 | -34.15418 | 151.22988 | 3022 ft | 204 kts | 349° |
| 2026-05-04 09:14 | -34.14029 | 151.22659 | 3017 ft | 203 kts | 348° |
| 2026-05-04 09:15 | -34.12640 | 151.22304 | 3025 ft | 203 kts | 348° |
| 2026-05-04 09:15 | -34.11289 | 151.21951 | 2981 ft | 197 kts | 348° |
| 2026-05-04 09:15 | -34.09973 | 151.21607 | 2754 ft | 189 kts | 347° |
| 2026-05-04 09:15 | -34.08705 | 151.21277 | 2505 ft | 186 kts | 345° |
| 2026-05-04 09:17 | -33.99619 | 151.18901 | 732 ft | 143 kts | 351° |
| 2026-05-04 09:18 | -33.98636 | 151.18645 | 550 ft | 146 kts | 351° |
| 2026-05-04 09:18 | -33.97640 | 151.18386 | 357 ft | 146 kts | 350° |
| 2026-05-04 09:18 | -33.96649 | 151.18121 | 124 ft | 145 kts | 350° |
| 2026-05-04 09:18 | -33.95702 | 151.17877 | 28 ft | 120 kts | 347° |
| 2026-05-04 09:19 | -33.95115 | 151.17721 | 27 ft | 54 kts | 347° |
| 2026-05-04 09:19 | -33.94789 | 151.17648 | 28 ft | 40 kts | 355° |
| 2026-05-04 09:19 | -33.94546 | 151.17671 | 28 ft | 26 kts | 17° |
| 2026-05-04 09:19 | -33.94439 | 151.17711 | 29 ft | 2 kts | 18° |